sensor_id;sensor_type;location;lat;lon;timestamp;temperature;humidity
54158;DHT22;40065;49.894;10.358;2023-05-07T00:04:05;16.00;99.90
54158;DHT22;40065;49.894;10.358;2023-05-07T00:09:07;15.90;99.90
54158;DHT22;40065;49.894;10.358;2023-05-07T00:14:09;15.80;99.90
54158;DHT22;40065;49.894;10.358;2023-05-07T00:19:11;15.60;99.90
54158;DHT22;40065;49.894;10.358;2023-05-07T00:24:13;15.60;99.90
54158;DHT22;40065;49.894;10.358;2023-05-07T00:29:14;15.70;99.90
54158;DHT22;40065;49.894;10.358;2023-05-07T00:34:16;15.50;99.90
54158;DHT22;40065;49.894;10.358;2023-05-07T00:39:18;15.40;99.90
54158;DHT22;40065;49.894;10.358;2023-05-07T00:44:20;15.50;99.90
54158;DHT22;40065;49.894;10.358;2023-05-07T00:49:25;15.50;99.90
54158;DHT22;40065;49.894;10.358;2023-05-07T00:54:30;15.40;99.90
54158;DHT22;40065;49.894;10.358;2023-05-07T00:59:32;15.50;99.90
54158;DHT22;40065;49.894;10.358;2023-05-07T01:04:34;15.50;99.90
54158;DHT22;40065;49.894;10.358;2023-05-07T01:09:37;15.50;99.90
54158;DHT22;40065;49.894;10.358;2023-05-07T01:14:40;15.40;99.90
54158;DHT22;40065;49.894;10.358;2023-05-07T01:19:41;15.30;99.90
54158;DHT22;40065;49.894;10.358;2023-05-07T01:24:43;15.40;99.90
54158;DHT22;40065;49.894;10.358;2023-05-07T01:29:47;15.30;99.90
54158;DHT22;40065;49.894;10.358;2023-05-07T01:34:50;15.20;99.90
54158;DHT22;40065;49.894;10.358;2023-05-07T01:39:53;15.00;99.90
54158;DHT22;40065;49.894;10.358;2023-05-07T01:44:55;14.90;99.90
54158;DHT22;40065;49.894;10.358;2023-05-07T01:49:57;14.80;99.90
54158;DHT22;40065;49.894;10.358;2023-05-07T01:54:59;14.50;99.90
54158;DHT22;40065;49.894;10.358;2023-05-07T02:00:01;14.50;99.90
54158;DHT22;40065;49.894;10.358;2023-05-07T02:05:15;14.40;99.90
54158;DHT22;40065;49.894;10.358;2023-05-07T02:10:21;14.40;99.90
54158;DHT22;40065;49.894;10.358;2023-05-07T02:15:22;14.40;99.90
54158;DHT22;40065;49.894;10.358;2023-05-07T02:20:24;14.40;99.90
54158;DHT22;40065;49.894;10.358;2023-05-07T02:25:26;14.30;99.90
54158;DHT22;40065;49.894;10.358;2023-05-07T02:30:28;14.30;99.90
54158;DHT22;40065;49.894;10.358;2023-05-07T02:35:32;14.10;99.90
54158;DHT22;40065;49.894;10.358;2023-05-07T02:40:34;14.20;99.90
54158;DHT22;40065;49.894;10.358;2023-05-07T02:45:40;14.20;99.90
54158;DHT22;40065;49.894;10.358;2023-05-07T02:50:42;14.30;99.90
54158;DHT22;40065;49.894;10.358;2023-05-07T02:55:46;14.00;99.90
54158;DHT22;40065;49.894;10.358;2023-05-07T03:00:48;14.00;99.90
54158;DHT22;40065;49.894;10.358;2023-05-07T03:06:00;13.90;99.90
54158;DHT22;40065;49.894;10.358;2023-05-07T03:11:02;13.90;99.90
54158;DHT22;40065;49.894;10.358;2023-05-07T03:16:04;14.00;99.90
54158;DHT22;40065;49.894;10.358;2023-05-07T03:21:07;13.90;99.90
54158;DHT22;40065;49.894;10.358;2023-05-07T03:26:09;13.90;99.90
54158;DHT22;40065;49.894;10.358;2023-05-07T03:31:11;13.80;99.90
54158;DHT22;40065;49.894;10.358;2023-05-07T03:36:14;13.80;99.90
54158;DHT22;40065;49.894;10.358;2023-05-07T03:41:15;13.80;99.90
54158;DHT22;40065;49.894;10.358;2023-05-07T03:46:19;14.00;99.90
54158;DHT22;40065;49.894;10.358;2023-05-07T03:51:22;14.00;99.90
54158;DHT22;40065;49.894;10.358;2023-05-07T03:56:24;14.10;99.90
54158;DHT22;40065;49.894;10.358;2023-05-07T04:01:29;14.20;99.90
54158;DHT22;40065;49.894;10.358;2023-05-07T04:06:31;14.20;99.90
54158;DHT22;40065;49.894;10.358;2023-05-07T04:11:35;14.10;99.90
54158;DHT22;40065;49.894;10.358;2023-05-07T04:16:37;14.20;99.90
54158;DHT22;40065;49.894;10.358;2023-05-07T04:21:40;14.20;99.90
54158;DHT22;40065;49.894;10.358;2023-05-07T04:26:42;14.40;99.90
54158;DHT22;40065;49.894;10.358;2023-05-07T04:31:44;14.50;99.90
54158;DHT22;40065;49.894;10.358;2023-05-07T04:36:47;14.60;99.90
54158;DHT22;40065;49.894;10.358;2023-05-07T04:41:49;14.70;99.90
54158;DHT22;40065;49.894;10.358;2023-05-07T04:46:51;15.00;99.90
54158;DHT22;40065;49.894;10.358;2023-05-07T04:51:54;15.80;99.90
54158;DHT22;40065;49.894;10.358;2023-05-07T04:56:57;16.60;99.90
54158;DHT22;40065;49.894;10.358;2023-05-07T05:01:59;17.00;99.90
54158;DHT22;40065;49.894;10.358;2023-05-07T05:07:02;17.40;99.90
54158;DHT22;40065;49.894;10.358;2023-05-07T05:12:07;16.40;99.90
54158;DHT22;40065;49.894;10.358;2023-05-07T05:17:12;16.90;99.90
54158;DHT22;40065;49.894;10.358;2023-05-07T05:22:13;16.00;99.90
54158;DHT22;40065;49.894;10.358;2023-05-07T05:27:15;15.70;99.90
54158;DHT22;40065;49.894;10.358;2023-05-07T05:32:17;16.40;99.90
54158;DHT22;40065;49.894;10.358;2023-05-07T05:37:19;16.20;99.90
54158;DHT22;40065;49.894;10.358;2023-05-07T05:42:23;16.00;99.90
54158;DHT22;40065;49.894;10.358;2023-05-07T05:47:25;16.00;99.90
54158;DHT22;40065;49.894;10.358;2023-05-07T05:52:29;16.20;99.90
54158;DHT22;40065;49.894;10.358;2023-05-07T05:57:31;16.00;99.90
54158;DHT22;40065;49.894;10.358;2023-05-07T06:02:33;15.70;99.90
54158;DHT22;40065;49.894;10.358;2023-05-07T06:07:36;15.70;99.90
54158;DHT22;40065;49.894;10.358;2023-05-07T06:12:39;16.00;99.90
54158;DHT22;40065;49.894;10.358;2023-05-07T06:17:41;16.40;99.90
54158;DHT22;40065;49.894;10.358;2023-05-07T06:22:44;16.80;99.90
54158;DHT22;40065;49.894;10.358;2023-05-07T06:27:48;16.70;99.90
54158;DHT22;40065;49.894;10.358;2023-05-07T06:32:50;16.50;99.90
54158;DHT22;40065;49.894;10.358;2023-05-07T06:37:52;16.20;99.90
54158;DHT22;40065;49.894;10.358;2023-05-07T06:42:58;16.40;99.90
54158;DHT22;40065;49.894;10.358;2023-05-07T06:48:10;16.20;99.90
54158;DHT22;40065;49.894;10.358;2023-05-07T06:53:23;16.50;99.90
54158;DHT22;40065;49.894;10.358;2023-05-07T06:58:25;16.80;99.90
54158;DHT22;40065;49.894;10.358;2023-05-07T07:03:27;16.80;99.90
54158;DHT22;40065;49.894;10.358;2023-05-07T07:08:30;16.80;99.90
54158;DHT22;40065;49.894;10.358;2023-05-07T07:13:32;16.90;99.90
54158;DHT22;40065;49.894;10.358;2023-05-07T07:18:34;17.00;99.90
54158;DHT22;40065;49.894;10.358;2023-05-07T07:23:38;16.90;99.90
54158;DHT22;40065;49.894;10.358;2023-05-07T07:28:47;17.20;99.90
54158;DHT22;40065;49.894;10.358;2023-05-07T07:33:52;17.30;99.90
54158;DHT22;40065;49.894;10.358;2023-05-07T07:38:54;17.10;99.90
54158;DHT22;40065;49.894;10.358;2023-05-07T07:43:56;17.40;99.90
54158;DHT22;40065;49.894;10.358;2023-05-07T07:48:58;18.00;99.90
54158;DHT22;40065;49.894;10.358;2023-05-07T07:54:01;18.30;99.90
54158;DHT22;40065;49.894;10.358;2023-05-07T07:59:06;18.70;99.10
54158;DHT22;40065;49.894;10.358;2023-05-07T08:04:11;19.20;98.80
54158;DHT22;40065;49.894;10.358;2023-05-07T08:09:15;20.80;96.40
54158;DHT22;40065;49.894;10.358;2023-05-07T08:14:18;21.30;95.40
54158;DHT22;40065;49.894;10.358;2023-05-07T08:19:22;20.80;95.70
54158;DHT22;40065;49.894;10.358;2023-05-07T08:24:25;21.00;95.80
54158;DHT22;40065;49.894;10.358;2023-05-07T08:29:27;20.80;95.60
54158;DHT22;40065;49.894;10.358;2023-05-07T08:34:29;20.30;96.10
54158;DHT22;40065;49.894;10.358;2023-05-07T08:39:33;20.60;96.30
54158;DHT22;40065;49.894;10.358;2023-05-07T08:44:35;20.60;97.10
54158;DHT22;40065;49.894;10.358;2023-05-07T08:49:37;20.10;97.10
54158;DHT22;40065;49.894;10.358;2023-05-07T08:54:41;20.10;97.60
54158;DHT22;40065;49.894;10.358;2023-05-07T08:59:44;20.90;96.40
54158;DHT22;40065;49.894;10.358;2023-05-07T09:04:46;20.70;96.00
54158;DHT22;40065;49.894;10.358;2023-05-07T09:09:48;20.70;96.20
54158;DHT22;40065;49.894;10.358;2023-05-07T09:14:50;20.60;96.10
54158;DHT22;40065;49.894;10.358;2023-05-07T09:19:52;20.40;96.90
54158;DHT22;40065;49.894;10.358;2023-05-07T09:24:55;21.00;96.70
54158;DHT22;40065;49.894;10.358;2023-05-07T09:30:03;21.00;96.10
54158;DHT22;40065;49.894;10.358;2023-05-07T09:35:15;20.70;96.70
54158;DHT22;40065;49.894;10.358;2023-05-07T09:40:24;20.70;96.00
54158;DHT22;40065;49.894;10.358;2023-05-07T09:45:28;21.30;95.90
54158;DHT22;40065;49.894;10.358;2023-05-07T09:50:36;21.40;95.40
54158;DHT22;40065;49.894;10.358;2023-05-07T09:55:39;22.20;94.20
54158;DHT22;40065;49.894;10.358;2023-05-07T10:00:41;21.80;94.10
54158;DHT22;40065;49.894;10.358;2023-05-07T10:05:48;23.70;92.70
54158;DHT22;40065;49.894;10.358;2023-05-07T10:10:51;25.00;90.80
54158;DHT22;40065;49.894;10.358;2023-05-07T10:15:57;23.80;90.70
54158;DHT22;40065;49.894;10.358;2023-05-07T10:21:17;23.80;92.10
54158;DHT22;40065;49.894;10.358;2023-05-07T10:26:22;24.20;90.30
54158;DHT22;40065;49.894;10.358;2023-05-07T10:37:05;25.10;89.00
54158;DHT22;40065;49.894;10.358;2023-05-07T10:42:12;25.20;88.00
54158;DHT22;40065;49.894;10.358;2023-05-07T10:47:19;24.50;89.00
54158;DHT22;40065;49.894;10.358;2023-05-07T10:52:25;24.30;89.70
54158;DHT22;40065;49.894;10.358;2023-05-07T10:57:54;25.20;90.20
54158;DHT22;40065;49.894;10.358;2023-05-07T11:03:04;25.20;88.00
54158;DHT22;40065;49.894;10.358;2023-05-07T11:08:16;25.60;86.10
54158;DHT22;40065;49.894;10.358;2023-05-07T11:13:48;26.30;85.00
54158;DHT22;40065;49.894;10.358;2023-05-07T11:18:59;25.00;84.00
54158;DHT22;40065;49.894;10.358;2023-05-07T11:24:09;24.90;87.70
54158;DHT22;40065;49.894;10.358;2023-05-07T11:29:21;25.20;86.80
54158;DHT22;40065;49.894;10.358;2023-05-07T11:34:29;25.20;85.30
54158;DHT22;40065;49.894;10.358;2023-05-07T11:39:32;25.20;84.40
54158;DHT22;40065;49.894;10.358;2023-05-07T11:44:44;26.20;86.10
54158;DHT22;40065;49.894;10.358;2023-05-07T11:49:48;26.30;82.40
54158;DHT22;40065;49.894;10.358;2023-05-07T11:54:51;25.30;82.80
54158;DHT22;40065;49.894;10.358;2023-05-07T12:00:02;24.60;84.70
54158;DHT22;40065;49.894;10.358;2023-05-07T12:05:15;25.60;82.30
54158;DHT22;40065;49.894;10.358;2023-05-07T12:10:18;24.70;83.00
54158;DHT22;40065;49.894;10.358;2023-05-07T12:15:24;24.50;82.60
54158;DHT22;40065;49.894;10.358;2023-05-07T12:20:26;24.30;84.70
54158;DHT22;40065;49.894;10.358;2023-05-07T12:25:35;25.20;84.70
54158;DHT22;40065;49.894;10.358;2023-05-07T12:30:38;25.10;80.10
54158;DHT22;40065;49.894;10.358;2023-05-07T12:35:41;25.80;79.50
54158;DHT22;40065;49.894;10.358;2023-05-07T12:40:44;26.20;75.90
54158;DHT22;40065;49.894;10.358;2023-05-07T12:45:49;25.90;78.90
54158;DHT22;40065;49.894;10.358;2023-05-07T12:50:51;25.30;80.40
54158;DHT22;40065;49.894;10.358;2023-05-07T12:55:56;24.70;80.60
54158;DHT22;40065;49.894;10.358;2023-05-07T13:00:59;25.00;80.30
54158;DHT22;40065;49.894;10.358;2023-05-07T13:06:04;25.40;81.10
54158;DHT22;40065;49.894;10.358;2023-05-07T13:11:07;25.60;76.40
54158;DHT22;40065;49.894;10.358;2023-05-07T13:16:10;26.20;78.30
54158;DHT22;40065;49.894;10.358;2023-05-07T13:21:13;25.10;80.40
54158;DHT22;40065;49.894;10.358;2023-05-07T13:26:15;25.10;79.60
54158;DHT22;40065;49.894;10.358;2023-05-07T13:31:27;24.70;80.40
54158;DHT22;40065;49.894;10.358;2023-05-07T13:36:29;24.60;79.10
54158;DHT22;40065;49.894;10.358;2023-05-07T13:41:34;24.30;80.60
54158;DHT22;40065;49.894;10.358;2023-05-07T13:46:36;24.20;82.10
54158;DHT22;40065;49.894;10.358;2023-05-07T13:51:38;24.20;81.80
54158;DHT22;40065;49.894;10.358;2023-05-07T13:56:40;24.30;82.00
54158;DHT22;40065;49.894;10.358;2023-05-07T14:01:41;24.50;81.40
54158;DHT22;40065;49.894;10.358;2023-05-07T14:06:43;25.10;83.00
54158;DHT22;40065;49.894;10.358;2023-05-07T14:11:45;25.40;81.30
54158;DHT22;40065;49.894;10.358;2023-05-07T14:16:49;26.10;77.20
54158;DHT22;40065;49.894;10.358;2023-05-07T14:21:52;26.10;79.40
54158;DHT22;40065;49.894;10.358;2023-05-07T14:26:53;25.40;79.80
54158;DHT22;40065;49.894;10.358;2023-05-07T14:31:55;26.10;78.30
54158;DHT22;40065;49.894;10.358;2023-05-07T14:36:57;26.30;78.50
54158;DHT22;40065;49.894;10.358;2023-05-07T14:41:59;26.40;77.50
54158;DHT22;40065;49.894;10.358;2023-05-07T14:47:01;25.70;78.60
54158;DHT22;40065;49.894;10.358;2023-05-07T14:52:03;25.20;78.80
54158;DHT22;40065;49.894;10.358;2023-05-07T14:57:09;24.10;82.50
54158;DHT22;40065;49.894;10.358;2023-05-07T15:02:12;24.00;83.90
54158;DHT22;40065;49.894;10.358;2023-05-07T15:07:15;24.00;82.50
54158;DHT22;40065;49.894;10.358;2023-05-07T15:12:17;23.90;81.90
54158;DHT22;40065;49.894;10.358;2023-05-07T15:17:19;23.80;84.10
54158;DHT22;40065;49.894;10.358;2023-05-07T15:22:20;23.60;83.00
54158;DHT22;40065;49.894;10.358;2023-05-07T15:27:23;23.10;85.80
54158;DHT22;40065;49.894;10.358;2023-05-07T15:32:25;23.10;85.60
54158;DHT22;40065;49.894;10.358;2023-05-07T15:37:27;23.00;86.30
54158;DHT22;40065;49.894;10.358;2023-05-07T15:42:28;23.20;85.50
54158;DHT22;40065;49.894;10.358;2023-05-07T15:47:32;23.00;86.00
54158;DHT22;40065;49.894;10.358;2023-05-07T15:52:35;22.90;86.60
54158;DHT22;40065;49.894;10.358;2023-05-07T15:57:37;22.80;86.60
54158;DHT22;40065;49.894;10.358;2023-05-07T16:02:39;22.90;86.80
54158;DHT22;40065;49.894;10.358;2023-05-07T16:07:41;22.70;87.20
54158;DHT22;40065;49.894;10.358;2023-05-07T16:12:44;22.70;87.10
54158;DHT22;40065;49.894;10.358;2023-05-07T16:17:47;22.60;86.40
54158;DHT22;40065;49.894;10.358;2023-05-07T16:22:50;22.60;87.10
54158;DHT22;40065;49.894;10.358;2023-05-07T16:27:52;22.70;86.90
54158;DHT22;40065;49.894;10.358;2023-05-07T16:32:55;22.60;86.50
54158;DHT22;40065;49.894;10.358;2023-05-07T16:37:57;22.20;87.80
54158;DHT22;40065;49.894;10.358;2023-05-07T16:42:58;22.20;87.90
54158;DHT22;40065;49.894;10.358;2023-05-07T16:48:00;22.20;87.70
54158;DHT22;40065;49.894;10.358;2023-05-07T16:53:05;22.10;88.00
54158;DHT22;40065;49.894;10.358;2023-05-07T16:58:09;22.00;89.00
54158;DHT22;40065;49.894;10.358;2023-05-07T17:03:11;21.70;90.10
54158;DHT22;40065;49.894;10.358;2023-05-07T17:08:13;21.40;90.60
54158;DHT22;40065;49.894;10.358;2023-05-07T17:13:15;21.30;91.00
54158;DHT22;40065;49.894;10.358;2023-05-07T17:18:17;21.10;91.30
54158;DHT22;40065;49.894;10.358;2023-05-07T17:23:19;20.90;91.00
54158;DHT22;40065;49.894;10.358;2023-05-07T17:28:21;20.80;90.60
54158;DHT22;40065;49.894;10.358;2023-05-07T17:33:23;20.40;91.20
54158;DHT22;40065;49.894;10.358;2023-05-07T17:38:25;20.40;91.80
54158;DHT22;40065;49.894;10.358;2023-05-07T17:43:26;20.40;91.90
54158;DHT22;40065;49.894;10.358;2023-05-07T17:48:28;20.30;91.90
54158;DHT22;40065;49.894;10.358;2023-05-07T17:53:30;20.10;92.10
54158;DHT22;40065;49.894;10.358;2023-05-07T17:58:32;20.00;92.30
54158;DHT22;40065;49.894;10.358;2023-05-07T18:03:42;20.00;92.10
54158;DHT22;40065;49.894;10.358;2023-05-07T18:08:44;19.70;92.50
54158;DHT22;40065;49.894;10.358;2023-05-07T18:13:46;19.50;92.70
54158;DHT22;40065;49.894;10.358;2023-05-07T18:18:48;19.40;92.70
54158;DHT22;40065;49.894;10.358;2023-05-07T18:23:50;19.30;92.90
54158;DHT22;40065;49.894;10.358;2023-05-07T18:28:52;19.30;93.20
54158;DHT22;40065;49.894;10.358;2023-05-07T18:33:54;19.20;93.20
54158;DHT22;40065;49.894;10.358;2023-05-07T18:38:56;19.20;93.30
54158;DHT22;40065;49.894;10.358;2023-05-07T18:43:58;19.00;93.80
54158;DHT22;40065;49.894;10.358;2023-05-07T18:49:00;18.90;93.90
54158;DHT22;40065;49.894;10.358;2023-05-07T18:54:02;18.80;94.30
54158;DHT22;40065;49.894;10.358;2023-05-07T18:59:04;18.90;94.00
54158;DHT22;40065;49.894;10.358;2023-05-07T19:04:06;18.80;94.30
54158;DHT22;40065;49.894;10.358;2023-05-07T19:09:08;18.50;94.60
54158;DHT22;40065;49.894;10.358;2023-05-07T19:14:09;18.60;94.90
54158;DHT22;40065;49.894;10.358;2023-05-07T19:19:11;18.50;94.90
54158;DHT22;40065;49.894;10.358;2023-05-07T19:24:13;18.50;95.30
54158;DHT22;40065;49.894;10.358;2023-05-07T19:29:15;18.30;95.30
54158;DHT22;40065;49.894;10.358;2023-05-07T19:34:19;18.10;95.50
54158;DHT22;40065;49.894;10.358;2023-05-07T19:39:21;18.00;95.60
54158;DHT22;40065;49.894;10.358;2023-05-07T19:44:22;18.00;95.50
54158;DHT22;40065;49.894;10.358;2023-05-07T19:49:25;18.00;95.60
54158;DHT22;40065;49.894;10.358;2023-05-07T19:54:27;17.90;96.00
54158;DHT22;40065;49.894;10.358;2023-05-07T19:59:29;17.70;96.10
54158;DHT22;40065;49.894;10.358;2023-05-07T20:04:31;17.70;96.20
54158;DHT22;40065;49.894;10.358;2023-05-07T20:09:37;17.60;96.50
54158;DHT22;40065;49.894;10.358;2023-05-07T20:14:39;17.60;96.40
54158;DHT22;40065;49.894;10.358;2023-05-07T20:19:41;17.50;96.50
54158;DHT22;40065;49.894;10.358;2023-05-07T20:24:43;17.40;97.00
54158;DHT22;40065;49.894;10.358;2023-05-07T20:29:45;17.30;96.90
54158;DHT22;40065;49.894;10.358;2023-05-07T20:34:47;17.20;97.00
54158;DHT22;40065;49.894;10.358;2023-05-07T20:39:49;17.10;97.30
54158;DHT22;40065;49.894;10.358;2023-05-07T20:44:50;17.10;97.30
54158;DHT22;40065;49.894;10.358;2023-05-07T20:49:53;17.10;97.30
54158;DHT22;40065;49.894;10.358;2023-05-07T20:54:55;16.90;97.60
54158;DHT22;40065;49.894;10.358;2023-05-07T20:59:56;16.90;97.50
54158;DHT22;40065;49.894;10.358;2023-05-07T21:04:58;16.80;97.80
54158;DHT22;40065;49.894;10.358;2023-05-07T21:10:00;16.70;98.10
54158;DHT22;40065;49.894;10.358;2023-05-07T21:15:02;16.70;98.30
54158;DHT22;40065;49.894;10.358;2023-05-07T21:20:04;16.60;98.50
54158;DHT22;40065;49.894;10.358;2023-05-07T21:25:07;16.60;98.70
54158;DHT22;40065;49.894;10.358;2023-05-07T21:30:11;16.40;99.10
54158;DHT22;40065;49.894;10.358;2023-05-07T21:35:14;16.30;99.50
54158;DHT22;40065;49.894;10.358;2023-05-07T21:40:16;16.00;99.60
54158;DHT22;40065;49.894;10.358;2023-05-07T21:45:18;15.80;99.90
54158;DHT22;40065;49.894;10.358;2023-05-07T21:50:20;15.80;99.90
54158;DHT22;40065;49.894;10.358;2023-05-07T21:55:22;15.70;99.90
54158;DHT22;40065;49.894;10.358;2023-05-07T22:00:24;15.60;99.90
54158;DHT22;40065;49.894;10.358;2023-05-07T22:05:26;15.50;99.90
54158;DHT22;40065;49.894;10.358;2023-05-07T22:10:29;15.30;99.90
54158;DHT22;40065;49.894;10.358;2023-05-07T22:15:31;15.30;99.90
54158;DHT22;40065;49.894;10.358;2023-05-07T22:20:37;15.30;99.90
54158;DHT22;40065;49.894;10.358;2023-05-07T22:25:39;15.10;99.90
54158;DHT22;40065;49.894;10.358;2023-05-07T22:30:41;15.10;99.90
54158;DHT22;40065;49.894;10.358;2023-05-07T22:35:43;15.10;99.90
54158;DHT22;40065;49.894;10.358;2023-05-07T22:40:45;15.10;99.90
54158;DHT22;40065;49.894;10.358;2023-05-07T22:45:47;14.90;99.90
54158;DHT22;40065;49.894;10.358;2023-05-07T22:50:49;14.90;99.90
54158;DHT22;40065;49.894;10.358;2023-05-07T22:55:50;14.90;99.90
54158;DHT22;40065;49.894;10.358;2023-05-07T23:00:53;14.90;99.90
54158;DHT22;40065;49.894;10.358;2023-05-07T23:05:54;14.90;99.90
54158;DHT22;40065;49.894;10.358;2023-05-07T23:10:56;14.80;99.90
54158;DHT22;40065;49.894;10.358;2023-05-07T23:15:58;14.70;99.90
54158;DHT22;40065;49.894;10.358;2023-05-07T23:21:00;14.60;99.90
54158;DHT22;40065;49.894;10.358;2023-05-07T23:26:01;14.50;99.90
54158;DHT22;40065;49.894;10.358;2023-05-07T23:31:06;14.40;99.90
54158;DHT22;40065;49.894;10.358;2023-05-07T23:36:08;14.40;99.90
54158;DHT22;40065;49.894;10.358;2023-05-07T23:41:10;14.40;99.90
54158;DHT22;40065;49.894;10.358;2023-05-07T23:46:12;14.30;99.90
54158;DHT22;40065;49.894;10.358;2023-05-07T23:51:14;14.20;99.90
54158;DHT22;40065;49.894;10.358;2023-05-07T23:56:15;14.10;99.90
